Kiev, Ukraine
Current Conditions -  °F | °C
As of 11:00 PM on Tuesday 21 Oct 2014 (Local Time) from UKKK Reporting Station
Clear Clear  
Wind Chill: 50°   Ceiling: Unl
Heat Index: 50°   Visibility: 6mi
Dew Point: 46°   Wind: 4mph
Humidity: 87%   Direction: 260°W
Pressure: 29.71"   Gusts: NA
Location:  50.43°N, 30.52°E
Report Text: UKKK 212000Z 26002MPS CAVOK 10/08 Q1006 26CLRD70 NOSIG
Loading
Personal Weather Stations






























Interactive Weather Map
Tropical Storm Tracking
New forecast layout! Learn more

10-Day Weather Forecast

Advertisements
Track Severe Weather on mobile